Ana Sayfa
METAR-TAF:

METAR-TAF

Havaalanları :

Marshfield, Massachusetts, Amerika Birleşik Devletleri

Enlem: 42-05-54N, Boylam: 070-40-20W, yükseklik: 3 m

Güncel hava durumu gözlemi

Rapor saat 07:35 UTC de 29 dakika önce yapıldı.
Sakin rüzgar
Sıcaklık 17°C
Nem 100%
Basınç 1012 hPa
Görüş mesafesi: 12.9 km
200 ft yükseklikte az bulutlu
3100 ft yükseklikte parçalı bulutlu
4500 ft yükseklikte parçalı çok bulutlu
hafif çisenti

METAR: KGHG 240735Z AUTO 00000KT 8SM -DZ FEW002 SCT031 BKN045 17/17 A2987 RMK AO2

Saat: 04:04 (08:04 UTC)


TAF: eksik

4.000'den fazla havaalanı için hava durumu gözlemleri ve tahminleri (METAR ve TAF raporları).

Kullanılabilir istasyonlar harita üzerinde sarı ve kırmızı noktalarla gösterilir.

İstasyonun adını görmek için fareyi noktanın üzerinde gezdirin.

Sonrasında hava gözlem ve tahminlerini görmek için tıklayın.

Haritayı değiştirmek için: yaklaştırmak için siyah artı işaretli yeşil düğmeye ve uzaklaştırmak için de eksi işaretli düğmeye hızla tıklayın; bitişik haritalar için yeşil okları kullanın.


METAR-TAF: